Time;durP1;ratioP1;P1;durP2;ratioP2;P2;SDS_P1;SDS_P2;PMS_P1;PMS_P2;Temp;Humidity;BMP_temperature;BMP_pressure;BME280_temperature;BME280_humidity;BME280_pressure;Samples;Min_cycle;Max_cycle;Signal;HPM_P1;HPM_P2
2021/09/04 00:01:39;;;;;;;19.00;14.70;;;;;;;13.18;89.54;99062.23;111199;1205;61642;-81
2021/09/04 00:04:06;;;;;;;17.50;14.20;;;;;;;13.16;89.58;99057.73;111217;1198;61003;-81
2021/09/04 00:06:33;;;;;;;14.80;12.60;;;;;;;13.12;89.40;99061.55;111143;1205;65835;-80
2021/09/04 00:09:01;;;;;;;13.80;12.40;;;;;;;13.07;89.27;99062.17;111185;1198;61080;-80
2021/09/04 00:11:28;;;;;;;13.80;11.90;;;;;;;13.00;89.20;99063.58;111141;1206;63998;-80
2021/09/04 00:13:54;;;;;;;12.20;10.90;;;;;;;12.91;89.16;99061.73;111061;1205;61086;-80
2021/09/04 00:16:21;;;;;;;15.30;11.50;;;;;;;12.86;89.27;99057.49;111168;1197;61065;-80
2021/09/04 00:18:48;;;;;;;13.20;10.40;;;;;;;12.81;89.42;99057.18;111179;1205;64621;-80
2021/09/04 00:21:14;;;;;;;13.50;11.20;;;;;;;12.75;89.54;99055.66;111184;1204;61091;-80
2021/09/04 00:23:41;;;;;;;16.60;13.00;;;;;;;12.71;89.66;99055.80;111169;1204;62889;-80
2021/09/04 00:26:07;;;;;;;14.80;12.30;;;;;;;12.69;89.96;99059.46;111169;1197;61096;-80
2021/09/04 00:28:34;;;;;;;18.20;13.10;;;;;;;12.68;89.96;99060.77;111075;1199;61034;-80
2021/09/04 00:31:01;;;;;;;14.70;12.80;;;;;;;12.67;90.05;99060.33;111057;1200;65677;-80
2021/09/04 00:33:27;;;;;;;20.40;18.20;;;;;;;12.65;89.88;99063.00;111184;1204;61092;-81
2021/09/04 00:35:54;;;;;;;17.10;15.30;;;;;;;12.62;90.12;99066.41;111216;1205;62467;-82
2021/09/04 00:38:20;;;;;;;19.10;14.10;;;;;;;12.59;90.14;99067.16;111149;1205;61038;-82
2021/09/04 00:40:47;;;;;;;18.20;15.20;;;;;;;12.56;90.03;99069.17;111219;1200;61091;-82
2021/09/04 00:43:14;;;;;;;15.80;14.00;;;;;;;12.52;90.10;99066.96;111164;1205;65685;-80
2021/09/04 00:45:40;;;;;;;16.80;14.40;;;;;;;12.50;90.35;99068.38;111182;1205;61112;-80
2021/09/04 00:48:07;;;;;;;17.60;13.80;;;;;;;12.48;90.21;99060.30;111054;1201;63779;-80
2021/09/04 00:50:36;;;;;;;15.30;13.70;;;;;;;12.47;90.26;99059.33;111171;1204;61007;-82
2021/09/04 00:53:04;;;;;;;15.40;13.30;;;;;;;12.46;90.35;99061.21;111321;1205;61115;-81
2021/09/04 00:55:31;;;;;;;13.70;12.40;;;;;;;12.45;90.31;99060.58;111201;1204;66010;-82
2021/09/04 00:57:59;;;;;;;14.50;12.30;;;;;;;12.43;90.42;99060.73;111197;1204;61051;-82
2021/09/04 01:00:26;;;;;;;13.70;12.10;;;;;;;12.42;90.47;99056.13;111373;1197;64674;-83
2021/09/04 01:02:53;;;;;;;14.90;11.90;;;;;;;12.42;90.43;99053.98;111246;1205;61009;-82
2021/09/04 01:05:20;;;;;;;12.40;11.10;;;;;;;12.44;90.53;99056.20;111057;1199;61028;-83
2021/09/04 01:07:48;;;;;;;12.70;11.20;;;;;;;12.43;90.50;99055.71;111172;1205;66960;-82
2021/09/04 01:10:14;;;;;;;15.50;13.00;;;;;;;12.43;90.61;99057.86;111149;1205;61071;-81
2021/09/04 01:12:41;;;;;;;14.40;12.70;;;;;;;12.44;90.70;99059.34;111063;1198;63701;-80
2021/09/04 01:15:09;;;;;;;13.70;11.90;;;;;;;12.46;90.94;99060.64;111205;1205;61093;-80
2021/09/04 01:17:36;;;;;;;11.80;10.60;;;;;;;12.49;91.04;99060.65;111225;1197;61067;-80
2021/09/04 01:20:05;;;;;;;13.10;11.40;;;;;;;12.51;91.04;99059.06;111138;1205;65688;-80
2021/09/04 01:22:33;;;;;;;12.30;11.00;;;;;;;12.53;90.94;99057.81;111217;1204;61067;-80
2021/09/04 01:25:06;;;;;;;12.80;11.20;;;;;;;12.53;91.04;99057.63;111240;1205;63927;-80
2021/09/04 01:27:36;;;;;;;15.80;11.00;;;;;;;12.53;91.02;99061.90;111178;1197;61090;-79
2021/09/04 01:30:04;;;;;;;12.70;11.10;;;;;;;12.55;90.99;99063.94;111161;1197;60984;-80
2021/09/04 01:32:30;;;;;;;12.60;10.30;;;;;;;12.58;91.08;99058.68;111095;1205;65677;-80
2021/09/04 01:35:08;;;;;;;15.40;12.20;;;;;;;12.62;91.02;99059.52;111109;1205;61147;-80
2021/09/04 01:37:35;;;;;;;10.90;9.40;;;;;;;12.66;91.17;99058.81;111180;1204;64805;-80
2021/09/04 01:40:08;;;;;;;12.80;10.50;;;;;;;12.68;90.99;99058.45;111100;1201;61163;-80
2021/09/04 01:42:34;;;;;;;10.30;9.20;;;;;;;12.72;91.06;99059.97;111181;1197;61015;-80
2021/09/04 01:45:01;;;;;;;13.60;9.50;;;;;;;12.75;90.97;99057.45;111156;1205;65979;-80
2021/09/04 01:47:28;;;;;;;12.60;9.40;;;;;;;12.73;90.87;99053.08;111166;1205;61067;-80
2021/09/04 01:49:55;;;;;;;14.60;10.10;;;;;;;12.74;90.88;99051.27;111146;1205;63933;-80
2021/09/04 01:52:22;;;;;;;14.40;10.60;;;;;;;12.74;91.12;99049.83;111150;1204;61082;-79
2021/09/04 01:54:50;;;;;;;13.70;10.90;;;;;;;12.78;91.16;99048.86;111095;1199;61167;-79
2021/09/04 01:57:18;;;;;;;18.60;11.00;;;;;;;12.83;91.15;99049.55;111182;1204;66006;-79
2021/09/04 01:59:45;;;;;;;13.30;10.20;;;;;;;12.83;91.00;99050.63;111161;1204;61069;-82
2021/09/04 02:02:14;;;;;;;12.70;9.80;;;;;;;12.79;90.85;99051.80;111265;1205;63995;-80
2021/09/04 02:04:40;;;;;;;15.30;11.20;;;;;;;12.73;90.78;99053.27;111177;1204;61015;-80
2021/09/04 02:07:07;;;;;;;13.60;10.90;;;;;;;12.69;90.78;99049.33;111117;1197;61045;-80
2021/09/04 02:09:33;;;;;;;15.20;11.40;;;;;;;12.65;90.94;99046.98;111088;1200;65948;-80
2021/09/04 02:12:00;;;;;;;13.30;10.80;;;;;;;12.60;90.95;99044.80;111154;1204;61059;-80
2021/09/04 02:14:27;;;;;;;12.40;10.10;;;;;;;12.57;90.89;99043.66;111077;1204;64748;-80
2021/09/04 02:16:54;;;;;;;11.70;10.40;;;;;;;12.51;90.75;99041.56;111129;1204;61107;-81
2021/09/04 02:19:20;;;;;;;11.60;9.20;;;;;;;12.46;90.78;99041.21;111180;1204;61000;-81
2021/09/04 02:21:47;;;;;;;14.70;10.80;;;;;;;12.41;90.77;99044.06;111211;1204;65683;-81
2021/09/04 02:24:13;;;;;;;13.10;10.40;;;;;;;12.36;90.79;99044.13;111186;1204;61013;-81
2021/09/04 02:26:40;;;;;;;14.60;11.10;;;;;;;12.27;90.99;99049.38;111225;1204;64948;-81
2021/09/04 02:29:07;;;;;;;16.50;12.20;;;;;;;12.13;91.08;99051.83;111196;1204;61802;-80
2021/09/04 02:31:33;;;;;;;13.40;10.70;;;;;;;12.03;91.24;99049.20;111224;1197;61101;-80
2021/09/04 02:34:00;;;;;;;16.40;12.70;;;;;;;11.99;91.50;99055.50;111099;1204;65654;-80
2021/09/04 02:36:28;;;;;;;14.40;12.00;;;;;;;11.93;91.62;99055.05;111104;1204;61065;-80
2021/09/04 02:38:55;;;;;;;14.20;11.10;;;;;;;11.89;91.71;99053.42;111057;1205;63838;-80
2021/09/04 02:41:22;;;;;;;12.20;10.50;;;;;;;11.87;91.81;99056.01;111145;1204;61110;-82
2021/09/04 02:43:49;;;;;;;12.30;10.20;;;;;;;11.87;91.91;99051.55;111227;1197;61003;-82
2021/09/04 02:46:15;;;;;;;11.30;10.00;;;;;;;11.80;91.65;99050.27;111164;1206;64649;-82
2021/09/04 02:48:42;;;;;;;11.90;10.10;;;;;;;11.73;91.72;99050.23;111163;1204;61122;-82
2021/09/04 02:51:09;;;;;;;10.90;9.10;;;;;;;11.68;91.80;99050.22;111218;1205;64015;-79
2021/09/04 02:53:35;;;;;;;12.60;10.80;;;;;;;11.64;91.78;99047.61;110922;1204;61101;-80
2021/09/04 02:56:02;;;;;;;14.70;11.80;;;;;;;11.61;91.94;99049.96;110656;1205;61135;-80
2021/09/04 02:58:29;;;;;;;12.80;10.50;;;;;;;11.60;92.08;99047.42;111093;1204;66886;-80
2021/09/04 03:00:55;;;;;;;12.30;11.10;;;;;;;11.58;92.23;99048.79;111170;1205;61094;-80
2021/09/04 03:03:22;;;;;;;13.00;11.70;;;;;;;11.56;92.19;99051.62;111135;1204;63963;-80
2021/09/04 03:05:49;;;;;;;13.90;12.00;;;;;;;11.58;92.51;99052.30;111090;1204;61092;-81
2021/09/04 03:08:15;;;;;;;14.00;11.40;;;;;;;11.62;92.66;99049.73;111150;1204;61165;-80
2021/09/04 03:10:42;;;;;;;17.00;14.70;;;;;;;11.60;92.43;99047.52;111068;1205;66726;-80
2021/09/04 03:13:08;;;;;;;17.20;12.30;;;;;;;11.59;92.55;99046.02;111119;1205;61055;-81
2021/09/04 03:15:35;;;;;;;14.40;12.80;;;;;;;11.61;92.38;99041.24;111108;1204;62452;-80
2021/09/04 03:18:02;;;;;;;14.00;12.50;;;;;;;11.59;92.30;99041.04;111140;1204;61278;-80
2021/09/04 03:20:28;;;;;;;19.10;14.20;;;;;;;11.54;92.23;99039.09;111150;1204;61060;-80
2021/09/04 03:22:55;;;;;;;15.60;12.70;;;;;;;11.52;92.33;99035.90;111132;1205;66015;-81
2021/09/04 03:25:22;;;;;;;14.80;12.90;;;;;;;11.49;92.46;99032.86;111154;1205;61003;-81
2021/09/04 03:27:48;;;;;;;14.30;11.80;;;;;;;11.48;92.49;99030.27;111182;1204;62752;-81
2021/09/04 03:30:15;;;;;;;14.40;11.50;;;;;;;11.46;92.59;99030.23;111150;1196;61101;-81
2021/09/04 03:32:41;;;;;;;12.60;10.30;;;;;;;11.43;92.48;99027.55;111127;1199;61048;-81
2021/09/04 03:35:09;;;;;;;15.20;12.20;;;;;;;11.39;92.57;99029.63;111164;1204;66259;-81
2021/09/04 03:37:36;;;;;;;14.30;11.40;;;;;;;11.36;92.56;99035.72;111244;1204;61097;-80
2021/09/04 03:40:03;;;;;;;14.80;12.80;;;;;;;11.34;92.55;99037.61;111132;1204;63650;-81
2021/09/04 03:42:30;;;;;;;14.20;11.00;;;;;;;11.33;92.80;99040.17;111160;1197;61040;-82
2021/09/04 03:44:56;;;;;;;16.40;12.10;;;;;;;11.35;92.82;99043.44;111185;1199;61090;-81
2021/09/04 03:47:23;;;;;;;17.80;13.80;;;;;;;11.36;92.74;99044.45;111265;1204;64710;-81
2021/09/04 03:49:50;;;;;;;15.90;13.20;;;;;;;11.36;92.73;99047.27;111166;1204;70045;-81
2021/09/04 03:52:16;;;;;;;19.30;14.20;;;;;;;11.33;92.66;99048.17;111168;1204;63987;-83
2021/09/04 03:54:43;;;;;;;17.40;12.50;;;;;;;11.31;92.70;99053.00;111181;1204;61050;-82
2021/09/04 03:57:10;;;;;;;16.00;13.30;;;;;;;11.27;92.47;99059.52;111266;1204;61429;-83
2021/09/04 03:59:36;;;;;;;13.30;11.80;;;;;;;11.20;92.48;99061.89;111307;1204;64623;-81
2021/09/04 04:02:03;;;;;;;19.50;12.70;;;;;;;11.15;92.63;99057.77;111249;1204;61365;-84
2021/09/04 04:04:30;;;;;;;14.60;11.50;;;;;;;11.14;92.63;99058.06;111165;1204;63866;-82
2021/09/04 04:06:56;;;;;;;13.10;11.00;;;;;;;11.14;92.82;99058.05;111175;1204;61088;-84
2021/09/04 04:09:23;;;;;;;14.10;12.10;;;;;;;11.14;92.86;99059.84;111202;1204;61049;-82
2021/09/04 04:11:49;;;;;;;13.80;12.20;;;;;;;11.15;92.80;99060.50;111214;1204;65972;-81
2021/09/04 04:14:16;;;;;;;15.20;12.20;;;;;;;11.18;92.91;99059.05;111239;1204;61104;-81
2021/09/04 04:16:43;;;;;;;12.10;10.70;;;;;;;11.20;92.97;99057.28;111201;1204;63861;-81
2021/09/04 04:19:10;;;;;;;13.50;12.10;;;;;;;11.22;92.70;99057.67;111182;1204;61088;-81
2021/09/04 04:21:37;;;;;;;17.00;12.60;;;;;;;11.26;92.87;99053.51;111201;1196;61182;-81
2021/09/04 04:24:04;;;;;;;16.90;12.60;;;;;;;11.36;92.76;99056.35;111205;1204;65780;-81
2021/09/04 04:26:30;;;;;;;14.80;12.10;;;;;;;11.52;92.51;99055.10;111163;1197;61258;-81
2021/09/04 04:28:57;;;;;;;12.70;11.40;;;;;;;11.69;92.17;99055.50;111199;1204;62601;-81
2021/09/04 04:31:23;;;;;;;14.40;12.50;;;;;;;11.85;91.91;99057.41;111165;1204;61087;-81
2021/09/04 04:33:50;;;;;;;19.50;13.20;;;;;;;11.99;91.59;99056.21;111200;1204;61149;-81
2021/09/04 04:36:17;;;;;;;17.40;12.90;;;;;;;12.08;91.33;99062.86;111194;1204;64355;-81
2021/09/04 04:38:43;;;;;;;20.20;15.20;;;;;;;12.09;91.46;99064.22;111162;1205;61011;-81
2021/09/04 04:41:10;;;;;;;20.50;15.20;;;;;;;12.13;91.66;99064.88;111243;1205;62320;-81
2021/09/04 04:43:36;;;;;;;15.80;14.20;;;;;;;12.19;91.49;99068.89;111229;1204;61080;-80
2021/09/04 04:46:03;;;;;;;15.80;13.30;;;;;;;12.28;91.25;99068.17;111211;1197;61092;-80
2021/09/04 04:48:30;;;;;;;16.50;14.30;;;;;;;12.47;90.96;99066.46;111149;1204;66037;-80
2021/09/04 04:50:57;;;;;;;17.00;14.80;;;;;;;12.69;90.44;99068.54;111145;1204;61094;-80
2021/09/04 04:53:23;;;;;;;20.60;13.10;;;;;;;12.81;90.22;99070.16;111180;1204;62611;-80
2021/09/04 04:55:50;;;;;;;14.70;13.00;;;;;;;12.75;89.95;99069.77;111104;1198;61211;-80
2021/09/04 04:58:16;;;;;;;19.30;15.30;;;;;;;12.64;90.19;99067.88;111165;1198;61101;-80
2021/09/04 05:00:43;;;;;;;18.90;15.80;;;;;;;12.88;89.89;99069.85;111180;1204;64601;-80
2021/09/04 05:03:10;;;;;;;21.10;16.40;;;;;;;13.20;89.07;99075.67;111193;1204;61007;-80
2021/09/04 05:05:37;;;;;;;19.10;15.20;;;;;;;13.38;89.02;99076.61;111145;1204;64710;-80
2021/09/04 05:08:04;;;;;;;17.80;14.40;;;;;;;13.77;88.96;99071.06;111145;1204;61024;-80
2021/09/04 05:10:31;;;;;;;16.00;14.30;;;;;;;14.25;88.12;99071.45;111178;1196;61016;-80
2021/09/04 05:12:57;;;;;;;17.70;14.70;;;;;;;14.57;87.14;99069.42;111131;1204;64740;-81
2021/09/04 05:15:24;;;;;;;15.40;13.60;;;;;;;14.83;86.58;99072.70;111022;1204;61035;-81
2021/09/04 05:17:51;;;;;;;18.70;15.20;;;;;;;15.09;86.07;99073.74;111107;1204;63949;-81
2021/09/04 05:20:18;;;;;;;18.00;15.70;;;;;;;15.25;85.57;99076.97;111107;1197;61111;-81
2021/09/04 05:22:46;;;;;;;17.20;15.50;;;;;;;15.39;85.20;99075.09;111147;1204;61080;-81
2021/09/04 05:25:14;;;;;;;18.20;15.70;;;;;;;15.62;85.39;99074.38;111275;1204;64629;-81
2021/09/04 05:27:41;;;;;;;17.00;15.30;;;;;;;15.96;85.23;99073.98;111255;1204;61087;-81
2021/09/04 05:30:08;;;;;;;17.00;15.00;;;;;;;16.26;84.64;99069.74;111218;1204;63740;-81
2021/09/04 05:32:35;;;;;;;18.50;14.70;;;;;;;16.55;84.52;99068.70;111185;1204;61127;-81
2021/09/04 05:35:02;;;;;;;15.70;14.00;;;;;;;16.82;83.67;99065.34;111254;1198;61030;-81
2021/09/04 05:37:29;;;;;;;19.50;15.40;;;;;;;16.95;82.96;99065.83;111256;1203;65657;-81
2021/09/04 05:39:55;;;;;;;16.30;14.80;;;;;;;17.11;82.78;99063.95;111257;1204;61091;-81
2021/09/04 05:42:22;;;;;;;16.00;14.30;;;;;;;17.30;82.48;99064.19;111223;1204;64022;-81
2021/09/04 05:44:49;;;;;;;15.80;14.10;;;;;;;17.46;82.21;99065.59;111240;1204;61105;-81
2021/09/04 05:47:15;;;;;;;16.40;13.80;;;;;;;17.55;81.70;99064.17;111262;1197;61092;-81
2021/09/04 05:49:42;;;;;;;16.10;13.80;;;;;;;17.67;81.53;99065.88;111196;1197;65996;-81
2021/09/04 05:52:09;;;;;;;15.20;13.60;;;;;;;17.76;80.81;99064.83;111244;1196;61075;-81
2021/09/04 05:54:35;;;;;;;14.80;13.20;;;;;;;17.87;80.83;99064.52;111208;1204;72733;-81
2021/09/04 05:57:02;;;;;;;16.60;14.50;;;;;;;18.02;80.48;99062.01;111241;1204;61029;-81
2021/09/04 05:59:30;;;;;;;15.70;14.00;;;;;;;18.22;80.47;99055.98;111217;1197;61011;-81
2021/09/04 06:01:56;;;;;;;17.10;15.20;;;;;;;18.40;79.75;99053.98;111238;1203;66005;-81
2021/09/04 06:04:23;;;;;;;16.80;14.20;;;;;;;18.47;79.47;99056.36;111237;1204;61092;-82
2021/09/04 06:06:49;;;;;;;17.10;14.00;;;;;;;18.55;79.07;99058.30;111253;1204;62727;-82
2021/09/04 06:09:16;;;;;;;18.50;14.50;;;;;;;18.59;79.03;99056.73;111260;1204;61000;-79
2021/09/04 06:11:43;;;;;;;16.70;13.80;;;;;;;18.68;78.66;99056.26;111160;1197;60983;-81
2021/09/04 06:14:10;;;;;;;15.00;12.50;;;;;;;18.77;78.69;99056.81;111148;1197;64730;-81
2021/09/04 06:16:36;;;;;;;14.10;12.60;;;;;;;18.85;78.22;99052.77;111160;1203;60971;-79
2021/09/04 06:19:03;;;;;;;15.00;13.50;;;;;;;18.94;78.15;99054.48;111156;1204;64967;-81
2021/09/04 06:21:30;;;;;;;15.70;12.70;;;;;;;19.02;77.68;99058.77;111128;1197;61089;-82
2021/09/04 06:23:56;;;;;;;14.30;12.50;;;;;;;19.04;77.46;99063.27;111245;1204;60996;-82
2021/09/04 06:26:23;;;;;;;15.40;13.80;;;;;;;19.15;77.41;99065.63;111264;1204;65578;-80
2021/09/04 06:28:49;;;;;;;13.40;11.30;;;;;;;19.18;76.78;99059.03;111203;1198;61006;-81
2021/09/04 06:31:16;;;;;;;13.20;11.80;;;;;;;19.11;76.62;99058.65;111230;1204;63941;-80
2021/09/04 06:33:43;;;;;;;12.80;11.50;;;;;;;19.07;76.53;99057.75;111290;1204;61094;-81
2021/09/04 06:36:09;;;;;;;13.90;11.00;;;;;;;18.98;76.72;99059.00;111255;1197;61065;-82
2021/09/04 06:38:36;;;;;;;13.00;11.70;;;;;;;18.80;76.89;99067.16;111136;1204;65698;-82
2021/09/04 06:41:03;;;;;;;15.80;12.20;;;;;;;18.68;77.50;99071.80;111244;1205;61094;-81
2021/09/04 06:43:30;;;;;;;16.30;12.50;;;;;;;18.65;78.06;99069.71;111181;1205;72318;-83
2021/09/04 06:45:56;;;;;;;17.40;13.80;;;;;;;18.65;78.25;99069.34;111220;1197;61105;-81
2021/09/04 06:48:23;;;;;;;14.50;13.00;;;;;;;18.66;78.33;99070.49;111179;1204;61079;-81
2021/09/04 06:50:50;;;;;;;17.10;14.40;;;;;;;18.63;78.05;99074.73;111205;1197;65962;-82
2021/09/04 06:53:17;;;;;;;15.90;13.90;;;;;;;18.55;77.82;99077.13;111233;1204;61079;-84
2021/09/04 06:55:44;;;;;;;16.20;12.90;;;;;;;18.38;77.47;99079.76;111218;1204;62435;-82
2021/09/04 06:58:10;;;;;;;17.10;13.50;;;;;;;18.21;77.84;99085.13;111153;1199;61075;-82
2021/09/04 07:00:37;;;;;;;14.20;12.70;;;;;;;18.20;78.53;99084.73;111179;1198;61049;-82
2021/09/04 07:03:04;;;;;;;14.70;13.00;;;;;;;18.27;78.57;99088.66;111263;1197;66916;-81
2021/09/04 07:05:31;;;;;;;16.20;12.10;;;;;;;18.27;77.95;99086.16;111243;1204;61740;-82
2021/09/04 07:07:57;;;;;;;12.70;11.40;;;;;;;18.22;78.02;99088.33;111190;1204;72900;-81
2021/09/04 07:10:24;;;;;;;13.30;11.80;;;;;;;18.21;78.07;99087.55;111183;1197;61089;-82
2021/09/04 07:12:51;;;;;;;14.90;11.40;;;;;;;18.21;77.97;99093.64;111219;1204;61067;-83
2021/09/04 07:15:17;;;;;;;15.50;11.90;;;;;;;18.18;78.26;99090.17;111198;1204;64340;-82
2021/09/04 07:17:44;;;;;;;12.90;11.20;;;;;;;18.25;78.57;99085.87;111291;1204;61085;-82
2021/09/04 07:20:11;;;;;;;12.70;11.40;;;;;;;18.34;78.35;99081.77;111251;1204;63987;-82
2021/09/04 07:22:38;;;;;;;14.00;11.70;;;;;;;18.40;78.21;99081.52;111246;1204;61082;-81
2021/09/04 07:25:05;;;;;;;14.70;11.70;;;;;;;18.46;78.35;99082.92;111267;1199;61104;-81
2021/09/04 07:27:32;;;;;;;15.10;11.60;;;;;;;18.53;78.24;99082.27;111216;1197;65569;-83
2021/09/04 07:29:59;;;;;;;14.30;11.10;;;;;;;18.60;78.08;99084.60;111223;1204;61071;-82
2021/09/04 07:32:25;;;;;;;13.60;12.20;;;;;;;18.63;77.84;99086.73;111241;1204;72545;-82
2021/09/04 07:34:52;;;;;;;12.90;11.60;;;;;;;18.60;77.49;99080.94;111174;1204;61192;-81
2021/09/04 07:37:19;;;;;;;15.50;13.80;;;;;;;18.65;77.92;99083.78;111230;1197;61072;-81
2021/09/04 07:39:45;;;;;;;14.70;12.60;;;;;;;18.82;78.33;99081.55;111257;1204;67478;-82
2021/09/04 07:42:12;;;;;;;16.10;13.30;;;;;;;19.05;78.17;99084.48;111279;1197;61076;-81
2021/09/04 07:44:39;;;;;;;16.60;13.60;;;;;;;19.26;77.89;99083.63;111190;1204;62764;-80
2021/09/04 07:47:06;;;;;;;15.40;12.40;;;;;;;19.46;77.88;99084.29;111238;1204;61003;-82
2021/09/04 07:49:32;;;;;;;16.20;12.30;;;;;;;19.71;77.81;99084.80;111217;1197;61088;-80
2021/09/04 07:51:59;;;;;;;14.40;12.60;;;;;;;19.97;77.80;99089.09;111175;1204;66044;-81
2021/09/04 07:54:26;;;;;;;14.00;11.90;;;;;;;20.14;77.32;99092.36;111200;1204;61017;-82
2021/09/04 07:56:52;;;;;;;12.60;11.30;;;;;;;20.23;76.92;99095.71;111331;1199;64757;-82
2021/09/04 07:59:19;;;;;;;12.80;11.50;;;;;;;20.27;76.66;99096.59;111225;1197;61063;-81
2021/09/04 08:01:46;;;;;;;13.20;11.50;;;;;;;20.33;76.56;99098.34;111213;1199;61078;-81
2021/09/04 08:04:14;;;;;;;13.90;11.20;;;;;;;20.43;76.52;99099.83;111193;1198;64616;-81
2021/09/04 08:06:40;;;;;;;13.20;11.00;;;;;;;20.44;75.58;99099.09;111239;1204;61084;-81
2021/09/04 08:09:08;;;;;;;11.90;10.60;;;;;;;20.39;75.10;99100.56;111208;1204;63837;-81
2021/09/04 08:11:34;;;;;;;14.20;12.70;;;;;;;20.36;74.80;99102.24;111247;1204;61018;-81
2021/09/04 08:14:02;;;;;;;15.30;11.50;;;;;;;20.32;74.29;99102.94;111241;1204;61714;-81
2021/09/04 08:16:29;;;;;;;13.60;11.50;;;;;;;20.33;74.55;99098.52;111220;1204;64628;-82
2021/09/04 08:18:56;;;;;;;11.60;10.30;;;;;;;20.36;74.36;99103.36;111188;1204;61002;-82
2021/09/04 08:21:23;;;;;;;12.80;11.50;;;;;;;20.41;74.53;99106.89;111238;1204;63804;-81
2021/09/04 08:23:49;;;;;;;14.20;12.30;;;;;;;20.51;74.79;99105.05;111204;1204;61075;-81
2021/09/04 08:26:16;;;;;;;12.20;10.90;;;;;;;20.60;74.02;99107.70;111195;1204;61078;-80
2021/09/04 08:28:43;;;;;;;14.40;11.80;;;;;;;20.62;73.85;99110.93;111061;1204;67051;-80
2021/09/04 08:31:09;;;;;;;13.50;12.10;;;;;;;20.71;74.25;99110.25;111187;1204;61101;-78
2021/09/04 08:33:36;;;;;;;13.50;11.90;;;;;;;20.76;73.92;99108.18;111152;1204;63762;-81
2021/09/04 08:36:03;;;;;;;14.60;11.20;;;;;;;20.81;74.03;99107.98;111183;1204;61081;-79
2021/09/04 08:38:30;;;;;;;16.80;12.50;;;;;;;20.92;73.92;99110.14;111137;1197;61097;-80
2021/09/04 08:40:56;;;;;;;15.40;11.80;;;;;;;21.02;73.92;99112.55;111185;1204;65689;-82
2021/09/04 08:43:23;;;;;;;14.40;11.50;;;;;;;21.11;73.32;99108.20;111204;1204;61063;-82
2021/09/04 08:45:50;;;;;;;12.50;11.00;;;;;;;21.10;73.03;99111.76;111255;1204;63817;-80
2021/09/04 08:48:19;;;;;;;12.80;10.90;;;;;;;21.16;73.08;99110.35;111179;1204;61121;-83
2021/09/04 08:50:46;;;;;;;13.30;11.60;;;;;;;21.25;72.27;99112.33;111218;1197;61110;-80
2021/09/04 08:53:13;;;;;;;14.90;12.00;;;;;;;21.20;71.98;99110.95;111223;1204;65792;-82
2021/09/04 08:55:40;;;;;;;13.80;11.20;;;;;;;21.28;72.41;99110.11;111183;1204;61096;-81
2021/09/04 08:58:08;;;;;;;12.20;11.00;;;;;;;21.41;71.77;99110.92;111194;1204;63984;-80
2021/09/04 09:00:40;;;;;;;13.30;11.70;;;;;;;21.48;72.04;99109.94;111203;1200;61085;-80
2021/09/04 09:03:20;;;;;;;13.60;11.40;;;;;;;21.58;70.98;99110.69;111298;1204;60988;-80
2021/09/04 09:05:47;;;;;;;13.90;11.70;;;;;;;21.47;69.91;99110.94;111262;1203;66008;-80
2021/09/04 09:08:25;;;;;;;12.90;11.60;;;;;;;21.42;70.18;99110.29;111235;1204;61063;-80
2021/09/04 09:10:55;;;;;;;13.60;12.20;;;;;;;21.42;69.95;99112.39;111273;1204;63983;-79
2021/09/04 09:13:22;;;;;;;12.50;11.30;;;;;;;21.51;70.40;99111.08;111195;1197;61069;-80
2021/09/04 09:15:51;;;;;;;14.00;10.60;;;;;;;21.68;70.42;99112.98;111246;1204;61020;-82
2021/09/04 09:18:19;;;;;;;12.50;11.20;;;;;;;21.87;70.47;99106.93;111218;1204;66043;-78
2021/09/04 09:21:05;;;;;;;12.90;10.70;;;;;;;22.11;70.63;99104.51;111125;1204;69332;-80
2021/09/04 09:23:32;;;;;;;13.80;11.30;;;;;;;22.30;69.89;99099.89;111141;1204;62655;-80
2021/09/04 09:26:08;;;;;;;12.70;11.40;;;;;;;22.44;69.71;99097.52;111120;1204;61135;-79
2021/09/04 09:28:36;;;;;;;13.10;11.70;;;;;;;22.64;69.36;99099.03;111198;1204;61090;-81
2021/09/04 09:31:03;;;;;;;13.90;11.40;;;;;;;22.82;68.84;99098.52;111121;1204;66009;-81
2021/09/04 09:33:31;;;;;;;12.30;11.10;;;;;;;23.03;67.69;99101.23;111154;1204;61032;-81
2021/09/04 09:36:00;;;;;;;13.10;11.60;;;;;;;23.13;66.40;99105.28;111272;1204;63923;-80
2021/09/04 09:38:29;;;;;;;12.00;10.80;;;;;;;22.97;65.87;99108.23;111222;1204;61102;-82
2021/09/04 09:40:58;;;;;;;;;;;;;;;22.93;66.52;99107.13;111238;1206;61131;-81
2021/09/04 09:43:32;;;;;;;12.50;11.20;;;;;;;23.06;66.15;99106.29;111210;1204;64430;-80
2021/09/04 09:46:01;;;;;;;12.90;11.70;;;;;;;23.12;65.19;99106.48;111251;1204;61018;-80
2021/09/04 09:48:33;;;;;;;13.20;11.90;;;;;;;23.16;65.16;99104.17;111286;1204;63860;-80
2021/09/04 09:51:03;;;;;;;14.30;12.60;;;;;;;23.11;64.99;99100.45;111277;1198;61101;-81
2021/09/04 09:53:30;;;;;;;14.70;11.70;;;;;;;23.23;65.19;99093.45;111295;1197;61121;-82
2021/09/04 09:55:59;;;;;;;12.90;11.60;;;;;;;23.36;64.18;99094.66;111233;1204;65980;-80
2021/09/04 09:58:28;;;;;;;11.30;10.10;;;;;;;23.16;63.81;99097.48;111211;1204;61088;-80
2021/09/04 10:00:58;;;;;;;14.60;13.20;;;;;;;22.79;63.83;99098.73;111255;1204;64783;-81
2021/09/04 10:03:28;;;;;;;13.90;12.20;;;;;;;22.69;64.05;99097.52;111219;1203;60962;-82
2021/09/04 10:05:56;;;;;;;15.60;14.00;;;;;;;22.68;64.63;99097.35;111274;1200;61019;-82
2021/09/04 10:08:24;;;;;;;13.60;12.30;;;;;;;22.85;65.16;99094.81;111156;1204;64822;-82
2021/09/04 10:10:51;;;;;;;14.10;12.70;;;;;;;23.06;64.93;99089.98;111211;1204;61050;-82
2021/09/04 10:13:18;;;;;;;15.20;13.60;;;;;;;23.22;64.44;99089.93;111064;1204;64994;-80
2021/09/04 10:15:51;;;;;;;14.70;13.30;;;;;;;23.35;64.52;99089.65;111121;1204;61090;-80
2021/09/04 10:18:23;;;;;;;13.30;12.00;;;;;;;23.49;64.11;99086.91;111219;1199;61090;-82
2021/09/04 10:21:06;;;;;;;14.10;12.70;;;;;;;23.57;63.40;99088.30;111195;1204;64755;-80
2021/09/04 10:23:32;;;;;;;11.90;10.60;;;;;;;23.61;63.20;99088.74;111244;1204;61052;-79
2021/09/04 10:26:22;;;;;;;11.20;10.20;;;;;;;23.82;62.40;99092.90;111210;1204;61224;-80
2021/09/04 10:29:04;;;;;;;11.70;10.60;;;;;;;24.18;61.81;99091.52;111144;1204;61244;-80
2021/09/04 10:31:55;;;;;;;12.20;10.70;;;;;;;24.50;60.35;99087.14;111269;1202;61094;-81
2021/09/04 10:34:26;;;;;;;13.30;12.10;;;;;;;24.48;59.51;99086.73;111254;1204;65775;-81
2021/09/04 10:37:05;;;;;;;13.70;11.50;;;;;;;24.30;59.07;99085.77;111241;1204;61077;-80
2021/09/04 10:39:58;;;;;;;12.50;11.20;;;;;;;24.37;59.80;99081.73;111147;1204;65167;-80
2021/09/04 10:42:35;;;;;;;13.00;11.50;;;;;;;24.48;59.32;99076.17;111152;1199;61180;-82
2021/09/04 10:45:08;;;;;;;13.30;12.00;;;;;;;24.64;59.36;99077.59;111275;1197;61090;-81
2021/09/04 10:47:52;;;;;;;12.20;11.10;;;;;;;24.73;58.83;99082.44;111233;1204;66033;-82
2021/09/04 10:50:27;;;;;;;12.40;11.30;;;;;;;24.69;58.37;99084.23;111241;1204;61742;-80
2021/09/04 10:53:03;;;;;;;13.50;12.10;;;;;;;24.66;58.06;99081.55;111217;1197;64992;-81
2021/09/04 10:55:39;;;;;;;13.80;12.30;;;;;;;24.73;58.68;99083.11;111002;1201;61101;-81
2021/09/04 10:58:16;;;;;;;12.90;11.70;;;;;;;24.87;58.58;99079.12;111233;1204;61081;-81
2021/09/04 11:00:49;;;;;;;13.30;12.00;;;;;;;24.98;58.38;99081.88;111175;1199;67000;-81
2021/09/04 11:03:21;;;;;;;11.60;10.20;;;;;;;25.02;57.94;99079.78;111209;1204;61095;-80
2021/09/04 11:06:01;;;;;;;11.60;10.50;;;;;;;24.99;56.09;99079.08;111188;1205;64739;-81
2021/09/04 11:08:31;;;;;;;10.70;9.60;;;;;;;25.05;55.87;99074.11;111212;1204;61095;-81
2021/09/04 11:11:16;;;;;;;11.60;10.50;;;;;;;25.16;54.42;99071.71;111214;1198;61150;-81
2021/09/04 11:13:50;;;;;;;10.40;9.40;;;;;;;25.37;54.89;99070.91;111261;1204;66040;-81